Asheville Regional Airport
KAVL : now visible

Airfield :











YOU CAN JOIN US ON...

 
LOGIN :

Register | Disclaimer

   EN    FR    IT 

 









Legend :    VFR   Marginal VFR   IFR   Intensive IFR   Very Intensive IFR
Visi :
Ceiling :
>= 8 km
>= 3000ft
5 to 8 km
1000 to 3000 ft
1500m to 5 km
500 to 1000 ft
800 to 1500m
200 to 500 ft
< 800m
< 200 ft
Symbols :   Thunderstorms  Fog  Heavy snow  Heavy precipitations  Wind > 20 kt







- Airport Elevation : 2165 ft
- IATA code : AVL


KAVL - Asheville Regional

CURRENT METAR :
  • 260554Z AUTO 33003KT 10SM CLR 19/16 A3020 RMK AO2 SLP198 T01940156 10278 20189 56003

EXPIRED METARs :
  • 260454Z AUTO 00000KT 10SM CLR 20/17 A3021 RMK AO2 SLP200 T02000172 403170167
  • 260354Z AUTO 00000KT 10SM CLR 21/17 A3021 RMK AO2 SLP201 T02110172

TAF KAVL
Valid from the 26 at 06:00 until the 27 at 06:00 UTC


260530Z 2606/2706 34004KT P6SM FEW060 SCT250
FM261600 33011G19KT P6SM FEW060
FM270100 34004KT P6SM FEW060
KZTL FIR / North America



MET'MAP, your aeronautical weather chart ! - Copyright ORBIFLY December 2007 - Disclaimer

ORBIFLY MET'MAP TEAM :

Programming & Development : Alexandra Zaïnal
Concept & Development : Baudouin d'Aumeries
Co-Development & Prog : Marc-Olivier Méhu
Technical & hardware support : Manuel Goepfert

Contact : metmap@orbifly.com




SOURCES & CREDITS :

   NOAA       Earth
Advisory